createdAt,value
2023-02-11T00:02:33.426Z,102734.84
2023-02-11T00:05:37.959Z,102732.22
2023-02-11T00:08:42.173Z,102746.97
2023-02-11T00:11:46.756Z,102745.25
2023-02-11T00:14:51.205Z,102736.56
2023-02-11T00:17:55.506Z,102740.03
2023-02-11T00:20:59.809Z,102722.66
2023-02-11T00:24:04.597Z,102726.13
2023-02-11T00:27:10.491Z,102732.22
2023-02-11T00:30:15.468Z,102728.75
2023-02-11T00:33:19.816Z,102712.25
2023-02-11T00:36:27.957Z,102720.06
2023-02-11T00:39:32.406Z,102726.16
2023-02-11T00:42:37.375Z,102721.84
2023-02-11T00:45:41.818Z,102728.78
2023-02-11T00:48:46.430Z,102733.97
2023-02-11T00:51:50.856Z,102736.59
2023-02-11T00:54:55.255Z,102735.75
2023-02-11T00:58:00.147Z,102740.06
2023-02-11T01:01:05.416Z,102735.75
2023-02-11T01:04:10.106Z,102734.00
2023-02-11T01:07:14.632Z,102741.81
2023-02-11T01:10:19.363Z,102750.53
2023-02-11T01:13:25.318Z,102747.03
2023-02-11T01:16:30.002Z,102751.41
2023-02-11T01:19:34.142Z,102759.22
2023-02-11T01:22:39.601Z,102752.28
2023-02-11T01:25:44.136Z,102754.00
2023-02-11T01:28:48.566Z,102758.34
2023-02-11T01:31:52.991Z,102750.53
2023-02-11T01:34:57.355Z,102752.28
2023-02-11T01:38:01.741Z,102760.97
2023-02-11T01:41:11.089Z,102755.75
2023-02-11T01:44:40.138Z,102766.16
2023-02-11T01:47:44.611Z,102778.38
2023-02-11T01:50:54.895Z,102771.41
2023-02-11T01:54:19.371Z,102770.53
2023-02-11T01:57:26.530Z,102774.03
2023-02-11T02:00:41.687Z,102778.38
2023-02-11T02:03:48.896Z,102780.16
2023-02-11T02:07:02.617Z,102777.56
2023-02-11T02:10:17.122Z,102768.00
2023-02-11T02:13:22.878Z,102766.25
2023-02-11T02:16:35.055Z,102759.31
2023-02-11T02:20:31.475Z,102758.47
2023-02-11T02:23:50.567Z,102755.88
2023-02-11T02:27:04.214Z,102745.44
2023-02-11T02:31:18.363Z,102741.13
2023-02-11T02:34:35.378Z,102742.84
2023-02-11T02:38:07.990Z,102736.78
2023-02-11T02:41:17.668Z,102731.56
2023-02-11T02:44:22.939Z,102724.63
2023-02-11T02:47:27.504Z,102726.34
2023-02-11T02:50:36.635Z,102729.84
2023-02-11T02:54:06.936Z,102713.31
2023-02-11T02:57:47.668Z,102731.56
2023-02-11T03:01:38.710Z,102731.56
2023-02-11T03:04:53.748Z,102728.09
2023-02-11T03:08:27.426Z,102724.59
2023-02-11T03:11:32.514Z,102711.56
2023-02-11T03:14:38.961Z,102717.69
2023-02-11T03:17:47.761Z,102710.72
2023-02-11T03:20:54.383Z,102702.88
2023-02-11T03:24:05.871Z,102699.41
2023-02-11T03:27:25.902Z,102695.09
2023-02-11T03:30:52.917Z,102690.69
2023-02-11T03:34:23.813Z,102689.88
2023-02-11T03:37:39.828Z,102697.69
2023-02-11T03:40:45.691Z,102713.34
2023-02-11T03:43:55.990Z,102708.13
2023-02-11T03:47:02.812Z,102722.03
2023-02-11T03:50:10.292Z,102730.72
2023-02-11T03:53:15.725Z,102735.09
2023-02-11T03:56:26.957Z,102731.59
2023-02-11T03:59:31.645Z,102724.66
2023-02-11T04:02:38.332Z,102720.28
2023-02-11T04:05:42.652Z,102730.72
2023-02-11T04:08:46.961Z,102726.34
2023-02-11T04:11:51.287Z,102722.00
2023-02-11T04:14:55.695Z,102722.00
2023-02-11T04:18:00.087Z,102724.59
2023-02-11T04:21:05.140Z,102723.75
2023-02-11T04:24:09.765Z,102725.50
2023-02-11T04:27:14.385Z,102724.59
2023-02-11T04:30:19.157Z,102721.13
2023-02-11T04:33:24.258Z,102728.09
2023-02-11T04:36:28.643Z,102725.50
2023-02-11T04:39:33.163Z,102733.34
2023-02-11T04:42:37.530Z,102739.44
2023-02-11T04:45:41.926Z,102738.53
2023-02-11T04:48:46.509Z,102733.31
2023-02-11T04:51:50.881Z,102736.78
2023-02-11T04:54:55.054Z,102732.44
2023-02-11T04:57:59.285Z,102726.41
2023-02-11T05:01:13.270Z,102725.50
2023-02-11T05:04:18.074Z,102728.13
2023-02-11T05:07:22.397Z,102720.28
2023-02-11T05:10:27.197Z,102703.78
2023-02-11T05:13:32.476Z,102700.31
2023-02-11T05:16:37.061Z,102694.19
2023-02-11T05:19:42.915Z,102688.13
2023-02-11T05:22:47.682Z,102675.94
2023-02-11T05:25:52.011Z,102692.47
2023-02-11T05:28:57.063Z,102699.41
2023-02-11T05:32:01.643Z,102697.66
2023-02-11T05:35:06.326Z,102702.88
2023-02-11T05:38:10.635Z,102707.25
2023-02-11T05:41:15.159Z,102718.53
2023-02-11T05:44:19.600Z,102718.53
2023-02-11T05:47:24.199Z,102718.53
2023-02-11T05:50:28.533Z,102723.75
2023-02-11T05:53:32.734Z,102720.28
2023-02-11T05:56:37.081Z,102721.16
2023-02-11T05:59:41.586Z,102726.38
2023-02-11T06:02:46.157Z,102724.63
2023-02-11T06:05:50.963Z,102730.72
2023-02-11T06:08:56.529Z,102728.97
2023-02-11T06:12:00.758Z,102735.06
2023-02-11T06:15:07.010Z,102742.88
2023-02-11T06:18:11.256Z,102736.81
2023-02-11T06:21:16.048Z,102741.13
2023-02-11T06:24:38.319Z,102742.88
2023-02-11T06:27:45.437Z,102745.50
2023-02-11T06:30:49.930Z,102748.97
2023-02-11T06:33:55.083Z,102747.25
2023-02-11T06:36:59.309Z,102742.03
2023-02-11T06:40:04.139Z,102747.25
2023-02-11T06:43:08.803Z,102751.56
2023-02-11T06:46:13.432Z,102748.09
2023-02-11T06:49:17.851Z,102739.41
2023-02-11T06:52:22.022Z,102751.56
2023-02-11T06:55:27.212Z,102748.97
2023-02-11T06:58:32.491Z,102757.66
2023-02-11T07:01:36.967Z,102763.75
2023-02-11T07:04:41.627Z,102763.75
2023-02-11T07:07:46.513Z,102761.16
2023-02-11T07:10:51.098Z,102768.97
2023-02-11T07:14:04.965Z,102779.41
2023-02-11T07:17:09.309Z,102779.41
2023-02-11T07:20:14.963Z,102782.03
2023-02-11T07:23:19.413Z,102779.41
2023-02-11T07:26:25.836Z,102794.19
2023-02-11T07:29:30.105Z,102799.41
2023-02-11T07:32:34.463Z,102804.63
2023-02-11T07:35:41.031Z,102813.34
2023-02-11T07:38:47.505Z,102820.31
2023-02-11T07:41:52.013Z,102830.75
2023-02-11T07:44:56.297Z,102837.72
2023-02-11T07:48:00.703Z,102843.78
2023-02-11T07:51:10.122Z,102857.75
2023-02-11T07:54:14.683Z,102862.97
2023-02-11T07:57:19.255Z,102872.50
2023-02-11T08:00:23.889Z,102868.19
2023-02-11T08:03:28.344Z,102861.22
2023-02-11T08:06:35.434Z,102858.59
2023-02-11T08:09:39.689Z,102855.97
2023-02-11T08:12:44.133Z,102860.34
2023-02-11T08:15:48.921Z,102869.03
2023-02-11T08:18:57.601Z,102867.31
2023-02-11T08:22:02.813Z,102868.19
2023-02-11T08:25:07.563Z,102873.41
2023-02-11T08:28:11.876Z,102877.72
2023-02-11T08:31:25.114Z,102882.09
2023-02-11T08:34:29.860Z,102880.38
2023-02-11T08:37:34.596Z,102889.06
2023-02-11T08:40:39.077Z,102887.31
2023-02-11T08:43:45.926Z,102895.16
2023-02-11T08:46:51.420Z,102893.41
2023-02-11T08:49:55.805Z,102898.63
2023-02-11T08:53:00.761Z,102898.63
2023-02-11T08:56:06.226Z,102901.25
2023-02-11T08:59:15.010Z,102909.06
2023-02-11T09:02:19.485Z,102900.38
2023-02-11T09:05:24.114Z,102900.38
2023-02-11T09:08:28.449Z,102899.50
2023-02-11T09:11:35.562Z,102900.38
2023-02-11T09:14:41.358Z,102916.91
2023-02-11T09:17:45.884Z,102921.28
2023-02-11T09:20:50.734Z,102926.50
2023-02-11T09:23:55.819Z,102929.97
2023-02-11T09:27:00.133Z,102938.66
2023-02-11T09:30:05.758Z,102929.09
2023-02-11T09:33:10.509Z,102929.97
2023-02-11T09:36:22.615Z,102928.22
2023-02-11T09:39:27.484Z,102922.16
2023-02-11T09:43:08.874Z,102925.63
2023-02-11T09:46:20.037Z,102935.22
2023-02-11T09:49:48.917Z,102941.28
2023-02-11T09:53:27.519Z,102943.03
2023-02-11T09:56:32.118Z,102953.47
2023-02-11T09:59:36.523Z,102952.59
2023-02-11T10:03:25.876Z,102971.75
2023-02-11T10:06:30.745Z,102971.75
2023-02-11T10:09:53.069Z,102978.75
2023-02-11T10:13:51.441Z,102989.19
2023-02-11T10:17:14.606Z,102995.28
2023-02-11T10:20:31.941Z,102990.91
2023-02-11T10:23:45.618Z,102977.84
2023-02-11T10:26:52.243Z,102973.53
2023-02-11T10:30:16.585Z,102975.25
2023-02-11T10:34:00.481Z,102983.94
2023-02-11T10:37:04.992Z,103000.50
2023-02-11T10:40:22.862Z,102997.91
2023-02-11T10:43:30.766Z,102995.25
2023-02-11T10:46:40.317Z,102988.31
2023-02-11T10:49:46.973Z,102980.47
2023-02-11T10:52:51.747Z,102988.28
2023-02-11T10:55:59.694Z,103004.88
2023-02-11T10:59:19.766Z,103005.72
2023-02-11T11:02:34.331Z,103015.28
2023-02-11T11:05:50.472Z,103034.44
2023-02-11T11:08:55.227Z,103037.06
2023-02-11T11:11:59.833Z,103032.72
2023-02-11T11:15:10.191Z,103027.50
2023-02-11T11:18:22.642Z,103027.47
2023-02-11T11:21:44.228Z,103033.59
2023-02-11T11:24:54.318Z,103041.41
2023-02-11T11:28:03.292Z,103040.53
2023-02-11T11:31:31.775Z,103045.75
2023-02-11T11:34:52.654Z,103037.91
2023-02-11T11:38:05.399Z,103044.91
2023-02-11T11:41:59.873Z,103051.00
2023-02-11T11:45:25.828Z,103029.22
2023-02-11T11:48:40.184Z,103038.78
2023-02-11T11:51:58.645Z,103046.63
2023-02-11T11:55:26.638Z,103042.28
2023-02-11T11:58:33.091Z,103050.13
2023-02-11T12:02:52.056Z,103058.84
2023-02-11T12:06:20.256Z,103050.13
2023-02-11T12:09:45.728Z,103043.16
2023-02-11T12:12:56.191Z,103047.47
2023-02-11T12:16:13.955Z,103037.91
2023-02-11T12:20:01.391Z,103033.53
2023-02-11T12:23:48.123Z,103038.75
2023-02-11T12:27:10.578Z,103032.69
2023-02-11T12:30:33.526Z,103040.47
2023-02-11T12:34:15.035Z,103051.84
2023-02-11T12:37:44.356Z,103057.06
2023-02-11T12:41:14.630Z,103055.31
2023-02-11T12:44:52.282Z,103046.59
2023-02-11T12:48:34.099Z,103050.94
2023-02-11T12:51:47.139Z,103057.00
2023-02-11T12:55:25.850Z,103066.63
2023-02-11T12:58:44.552Z,103069.25
2023-02-11T13:01:51.910Z,103065.75
2023-02-11T13:05:05.520Z,103071.00
2023-02-11T13:08:30.697Z,103079.72
2023-02-11T13:11:51.853Z,103073.63
2023-02-11T13:15:03.779Z,103071.88
2023-02-11T13:18:32.406Z,103070.16
2023-02-11T13:22:19.289Z,103081.47
2023-02-11T13:25:57.183Z,103080.63
2023-02-11T13:29:53.477Z,103079.75
2023-02-11T13:32:58.032Z,103078.91
2023-02-11T13:36:04.541Z,103072.78
2023-02-11T13:39:21.277Z,103075.41
2023-02-11T13:42:27.136Z,103074.53
2023-02-11T13:45:40.342Z,103081.53
2023-02-11T13:48:53.770Z,103084.13
2023-02-11T13:52:02.786Z,103089.38
2023-02-11T13:55:23.324Z,103102.44
2023-02-11T13:58:27.911Z,103105.91
2023-02-11T14:02:06.041Z,103118.13
2023-02-11T14:05:45.371Z,103116.41
2023-02-11T14:09:14.228Z,103118.13
2023-02-11T14:12:34.264Z,103109.41
2023-02-11T14:15:40.424Z,103108.56
2023-02-11T14:18:45.081Z,103120.72
2023-02-11T14:21:50.137Z,103117.25
2023-02-11T14:25:00.924Z,103114.63
2023-02-11T14:28:25.896Z,103134.69
2023-02-11T14:32:06.136Z,103133.81
2023-02-11T14:35:47.899Z,103127.69
2023-02-11T14:39:25.330Z,103125.09
2023-02-11T14:42:31.354Z,103146.00
2023-02-11T14:45:38.013Z,103147.75
2023-02-11T14:48:52.299Z,103146.00
2023-02-11T14:52:06.197Z,103149.47
2023-02-11T14:55:38.123Z,103142.53
2023-02-11T14:58:51.999Z,103153.84
2023-02-11T15:01:56.225Z,103159.94
2023-02-11T15:05:26.142Z,103159.94
2023-02-11T15:08:34.569Z,103173.00
2023-02-11T15:11:43.228Z,103170.38
2023-02-11T15:14:55.264Z,103167.75
2023-02-11T15:18:03.430Z,103177.34
2023-02-11T15:21:08.332Z,103184.31
2023-02-11T15:24:31.768Z,103186.91
2023-02-11T15:27:57.883Z,103191.25
2023-02-11T15:31:16.203Z,103194.72
2023-02-11T15:34:20.979Z,103204.31
2023-02-11T15:37:32.119Z,103204.31
2023-02-11T15:40:37.893Z,103205.16
2023-02-11T15:43:53.025Z,103199.94
2023-02-11T15:46:57.515Z,103199.06
2023-02-11T15:50:02.444Z,103196.44
2023-02-11T15:53:21.982Z,103213.88
2023-02-11T15:56:43.583Z,103214.72
2023-02-11T15:59:53.044Z,103216.47
2023-02-11T16:02:57.517Z,103216.44
2023-02-11T16:06:26.442Z,103224.28
2023-02-11T16:09:35.118Z,103222.50
2023-02-11T16:12:39.677Z,103222.50
2023-02-11T16:15:57.259Z,103221.63
2023-02-11T16:19:06.237Z,103225.13
2023-02-11T16:22:20.382Z,103228.59
2023-02-11T16:25:25.068Z,103243.38
2023-02-11T16:28:29.763Z,103243.41
2023-02-11T16:31:37.773Z,103257.28
2023-02-11T16:34:42.692Z,103261.69
2023-02-11T16:37:47.225Z,103273.00
2023-02-11T16:40:51.875Z,103286.06
2023-02-11T16:43:59.296Z,103275.63
2023-02-11T16:47:06.855Z,103272.13
2023-02-11T16:50:22.244Z,103274.72
2023-02-11T16:53:26.670Z,103281.72
2023-02-11T16:56:31.103Z,103293.94
2023-02-11T16:59:35.115Z,103294.81
2023-02-11T17:02:39.918Z,103284.31
2023-02-11T17:05:58.320Z,103285.19
2023-02-11T17:09:03.880Z,103286.06
2023-02-11T17:12:08.459Z,103290.41
2023-02-11T17:15:12.568Z,103301.69
2023-02-11T17:18:16.946Z,103302.53
2023-02-11T17:21:21.536Z,103321.69
2023-02-11T17:24:26.235Z,103332.06
2023-02-11T17:27:30.400Z,103332.94
2023-02-11T17:30:35.398Z,103340.78
2023-02-11T17:33:39.804Z,103351.22
2023-02-11T17:36:44.803Z,103345.97
2023-02-11T17:39:50.976Z,103359.88
2023-02-11T17:42:55.427Z,103356.41
2023-02-11T17:45:59.794Z,103363.31
2023-02-11T17:49:04.994Z,103356.38
2023-02-11T17:52:09.730Z,103353.75
2023-02-11T17:55:14.686Z,103352.03
2023-02-11T17:58:19.044Z,103360.72
2023-02-11T18:01:26.645Z,103351.13
2023-02-11T18:04:31.726Z,103359.78
2023-02-11T18:07:36.260Z,103359.78
2023-02-11T18:10:43.527Z,103362.38
2023-02-11T18:13:54.273Z,103371.09
2023-02-11T18:16:58.977Z,103385.88
2023-02-11T18:20:04.885Z,103392.81
2023-02-11T18:23:10.648Z,103398.09
2023-02-11T18:26:17.917Z,103398.06
2023-02-11T18:29:22.344Z,103388.53
2023-02-11T18:32:27.119Z,103397.28
2023-02-11T18:35:31.517Z,103402.47
2023-02-11T18:38:36.167Z,103407.72
2023-02-11T18:41:42.285Z,103411.19
2023-02-11T18:44:46.317Z,103421.72
2023-02-11T18:47:50.505Z,103415.59
2023-02-11T18:50:55.766Z,103422.53
2023-02-11T18:54:02.713Z,103424.34
2023-02-11T18:57:07.652Z,103429.56
2023-02-11T19:00:12.983Z,103439.19
2023-02-11T19:03:17.821Z,103433.94
2023-02-11T19:06:26.123Z,103437.44
2023-02-11T19:09:30.896Z,103445.31
2023-02-11T19:12:35.262Z,103440.97
2023-02-11T19:15:44.856Z,103440.97
2023-02-11T19:18:49.477Z,103447.88
2023-02-11T19:21:55.430Z,103446.16
2023-02-11T19:24:59.801Z,103462.72
2023-02-11T19:28:04.183Z,103456.66
2023-02-11T19:31:09.508Z,103472.31
2023-02-11T19:34:16.774Z,103478.44
2023-02-11T19:37:21.361Z,103480.16
2023-02-11T19:40:25.954Z,103471.50
2023-02-11T19:43:31.119Z,103479.28
2023-02-11T19:46:40.661Z,103458.41
2023-02-11T19:49:45.438Z,103461.00
2023-02-11T19:52:49.598Z,103464.47
2023-02-11T19:55:54.106Z,103474.06
2023-02-11T19:59:01.995Z,103476.63
2023-02-11T20:02:06.661Z,103479.25
2023-02-11T20:05:11.139Z,103480.13
2023-02-11T20:08:17.124Z,103481.84
2023-02-11T20:11:22.673Z,103480.16
2023-02-11T20:14:28.166Z,103485.38
2023-02-11T20:17:32.700Z,103482.72
2023-02-11T20:20:38.726Z,103478.31
2023-02-11T20:23:44.867Z,103480.97
2023-02-11T20:26:51.688Z,103474.00
2023-02-11T20:29:56.102Z,103470.50
2023-02-11T20:33:00.647Z,103479.19
2023-02-11T20:36:13.856Z,103467.84
2023-02-11T20:39:19.290Z,103469.56
2023-02-11T20:42:24.107Z,103475.66
2023-02-11T20:45:28.553Z,103479.97
2023-02-11T20:48:34.087Z,103490.47
2023-02-11T20:51:38.597Z,103494.78
2023-02-11T20:54:43.072Z,103499.13
2023-02-11T20:57:47.855Z,103503.44
2023-02-11T21:00:52.569Z,103507.84
2023-02-11T21:04:02.415Z,103502.59
2023-02-11T21:07:06.992Z,103508.66
2023-02-11T21:10:12.184Z,103520.00
2023-02-11T21:13:16.858Z,103517.38
2023-02-11T21:16:21.540Z,103526.13
2023-02-11T21:19:26.431Z,103529.53
2023-02-11T21:22:31.400Z,103532.16
2023-02-11T21:25:35.943Z,103535.63
2023-02-11T21:28:41.241Z,103546.03
2023-02-11T21:31:46.262Z,103547.78
2023-02-11T21:34:50.880Z,103556.53
2023-02-11T21:37:55.184Z,103560.06
2023-02-11T21:41:05.250Z,103558.22
2023-02-11T21:44:09.797Z,103567.03
2023-02-11T21:47:14.351Z,103561.78
2023-02-11T21:50:19.211Z,103557.47
2023-02-11T21:53:23.616Z,103561.78
2023-02-11T21:56:30.067Z,103565.31
2023-02-11T21:59:34.326Z,103570.47
2023-02-11T22:02:39.193Z,103582.75
2023-02-11T22:05:43.952Z,103582.72
2023-02-11T22:08:50.066Z,103593.94
2023-02-11T22:11:54.722Z,103605.31
2023-02-11T22:14:58.831Z,103607.13
2023-02-11T22:18:03.242Z,103604.44
2023-02-11T22:21:12.622Z,103600.09
2023-02-11T22:24:17.054Z,103604.41
2023-02-11T22:27:21.921Z,103609.69
2023-02-11T22:30:26.322Z,103620.94
2023-02-11T22:33:31.140Z,103617.50
2023-02-11T22:36:40.056Z,103627.09
2023-02-11T22:39:44.950Z,103628.84
2023-02-11T22:42:49.245Z,103629.72
2023-02-11T22:45:56.460Z,103620.97
2023-02-11T22:49:01.207Z,103631.34
2023-02-11T22:52:05.455Z,103637.47
2023-02-11T22:55:09.880Z,103643.66
2023-02-11T22:58:14.192Z,103642.69
2023-02-11T23:01:19.519Z,103644.44
2023-02-11T23:04:23.886Z,103652.28
2023-02-11T23:07:28.257Z,103644.38
2023-02-11T23:10:36.306Z,103652.19
2023-02-11T23:13:43.237Z,103668.88
2023-02-11T23:16:51.163Z,103669.75
2023-02-11T23:19:56.041Z,103679.31
2023-02-11T23:23:00.499Z,103694.06
2023-02-11T23:26:08.563Z,103686.28
2023-02-11T23:29:13.334Z,103684.50
2023-02-11T23:32:18.997Z,103687.16
2023-02-11T23:35:24.402Z,103686.31
2023-02-11T23:38:29.050Z,103685.44
2023-02-11T23:41:33.589Z,103693.25
2023-02-11T23:44:38.198Z,103701.13
2023-02-11T23:47:42.568Z,103704.63
2023-02-11T23:50:47.177Z,103715.03
2023-02-11T23:53:52.888Z,103725.50
2023-02-11T23:56:57.661Z,103728.13
